Aviation Digital Data Service (ADDS)

Output produced by METARs form (0434 UTC 21 November 2017)
found at http://www.aviationweather.gov/adds/metars/
 
KSAV 210353Z 06007KT 10SM CLR 11/07 A3021 RMK AO2 SLP228 T01060067